sensor_id;sensor_type;location;lat;lon;timestamp;P1;P2;P0
71858;PMS5003;59713;50.866;4.324;2023-11-19T00:00:38;5;4;
71858;PMS5003;59713;50.866;4.324;2023-11-19T00:01:38;4;3;
71858;PMS5003;59713;50.866;4.324;2023-11-19T00:02:39;4;3;
71858;PMS5003;59713;50.866;4.324;2023-11-19T00:03:38;4;3;
71858;PMS5003;59713;50.866;4.324;2023-11-19T00:04:38;3;3;
71858;PMS5003;59713;50.866;4.324;2023-11-19T00:05:39;3;3;
71858;PMS5003;59713;50.866;4.324;2023-11-19T00:06:38;3;3;
71858;PMS5003;59713;50.866;4.324;2023-11-19T00:07:39;8;4;
71858;PMS5003;59713;50.866;4.324;2023-11-19T00:07:39;8;4;
71858;PMS5003;59713;50.866;4.324;2023-11-19T00:08:38;8;4;
71858;PMS5003;59713;50.866;4.324;2023-11-19T00:09:38;8;4;
71858;PMS5003;59713;50.866;4.324;2023-11-19T00:10:38;5;4;
71858;PMS5003;59713;50.866;4.324;2023-11-19T00:11:38;5;4;
71858;PMS5003;59713;50.866;4.324;2023-11-19T00:12:39;5;4;
71858;PMS5003;59713;50.866;4.324;2023-11-19T00:13:38;5;4;
71858;PMS5003;59713;50.866;4.324;2023-11-19T00:14:38;5;4;
71858;PMS5003;59713;50.866;4.324;2023-11-19T00:15:38;5;4;
71858;PMS5003;59713;50.866;4.324;2023-11-19T00:16:38;4;4;
71858;PMS5003;59713;50.866;4.324;2023-11-19T00:16:38;4;4;
71858;PMS5003;59713;50.866;4.324;2023-11-19T00:17:40;4;4;
71858;PMS5003;59713;50.866;4.324;2023-11-19T00:18:38;4;4;
71858;PMS5003;59713;50.866;4.324;2023-11-19T00:19:38;5;5;
71858;PMS5003;59713;50.866;4.324;2023-11-19T00:20:38;5;5;
71858;PMS5003;59713;50.866;4.324;2023-11-19T00:21:39;5;5;
71858;PMS5003;59713;50.866;4.324;2023-11-19T00:22:38;4;4;
71858;PMS5003;59713;50.866;4.324;2023-11-19T00:23:38;4;4;
71858;PMS5003;59713;50.866;4.324;2023-11-19T00:24:38;4;4;
71858;PMS5003;59713;50.866;4.324;2023-11-19T00:25:38;6;4;
71858;PMS5003;59713;50.866;4.324;2023-11-19T00:25:38;6;4;
71858;PMS5003;59713;50.866;4.324;2023-11-19T00:26:38;6;4;
71858;PMS5003;59713;50.866;4.324;2023-11-19T00:27:38;6;4;
71858;PMS5003;59713;50.866;4.324;2023-11-19T00:28:38;7;5;
71858;PMS5003;59713;50.866;4.324;2023-11-19T00:29:38;7;5;
71858;PMS5003;59713;50.866;4.324;2023-11-19T00:30:38;7;5;
71858;PMS5003;59713;50.866;4.324;2023-11-19T00:31:39;4;4;
71858;PMS5003;59713;50.866;4.324;2023-11-19T00:32:38;4;4;
71858;PMS5003;59713;50.866;4.324;2023-11-19T00:33:38;4;4;
71858;PMS5003;59713;50.866;4.324;2023-11-19T00:34:38;4;4;
71858;PMS5003;59713;50.866;4.324;2023-11-19T00:34:38;4;4;
71858;PMS5003;59713;50.866;4.324;2023-11-19T00:35:38;4;4;
71858;PMS5003;59713;50.866;4.324;2023-11-19T00:36:38;4;4;
71858;PMS5003;59713;50.866;4.324;2023-11-19T00:37:38;8;6;
71858;PMS5003;59713;50.866;4.324;2023-11-19T00:38:38;8;6;
71858;PMS5003;59713;50.866;4.324;2023-11-19T00:39:38;8;6;
71858;PMS5003;59713;50.866;4.324;2023-11-19T00:40:38;6;4;
71858;PMS5003;59713;50.866;4.324;2023-11-19T00:41:38;6;4;
71858;PMS5003;59713;50.866;4.324;2023-11-19T00:42:38;6;4;
71858;PMS5003;59713;50.866;4.324;2023-11-19T00:43:38;5;3;
71858;PMS5003;59713;50.866;4.324;2023-11-19T00:44:39;5;3;
71858;PMS5003;59713;50.866;4.324;2023-11-19T00:44:39;5;3;
71858;PMS5003;59713;50.866;4.324;2023-11-19T00:45:39;5;3;
71858;PMS5003;59713;50.866;4.324;2023-11-19T00:46:38;5;3;
71858;PMS5003;59713;50.866;4.324;2023-11-19T00:47:38;5;3;
71858;PMS5003;59713;50.866;4.324;2023-11-19T00:48:39;5;3;
71858;PMS5003;59713;50.866;4.324;2023-11-19T00:49:38;3;3;
71858;PMS5003;59713;50.866;4.324;2023-11-19T00:50:38;3;3;
71858;PMS5003;59713;50.866;4.324;2023-11-19T00:51:38;3;3;
71858;PMS5003;59713;50.866;4.324;2023-11-19T00:52:38;3;3;
71858;PMS5003;59713;50.866;4.324;2023-11-19T00:53:39;3;3;
71858;PMS5003;59713;50.866;4.324;2023-11-19T00:53:39;3;3;
71858;PMS5003;59713;50.866;4.324;2023-11-19T00:54:38;3;3;
71858;PMS5003;59713;50.866;4.324;2023-11-19T00:55:39;5;5;
71858;PMS5003;59713;50.866;4.324;2023-11-19T00:56:38;5;5;
71858;PMS5003;59713;50.866;4.324;2023-11-19T00:57:38;5;5;
71858;PMS5003;59713;50.866;4.324;2023-11-19T00:58:39;7;4;
71858;PMS5003;59713;50.866;4.324;2023-11-19T00:59:41;7;4;
71858;PMS5003;59713;50.866;4.324;2023-11-19T01:00:39;7;4;
71858;PMS5003;59713;50.866;4.324;2023-11-19T01:01:38;6;5;
71858;PMS5003;59713;50.866;4.324;2023-11-19T01:02:39;6;5;
71858;PMS5003;59713;50.866;4.324;2023-11-19T01:02:39;6;5;
71858;PMS5003;59713;50.866;4.324;2023-11-19T01:03:39;6;5;
71858;PMS5003;59713;50.866;4.324;2023-11-19T01:04:39;2;2;
71858;PMS5003;59713;50.866;4.324;2023-11-19T01:05:38;2;2;
71858;PMS5003;59713;50.866;4.324;2023-11-19T01:06:39;2;2;
71858;PMS5003;59713;50.866;4.324;2023-11-19T01:07:39;5;2;
71858;PMS5003;59713;50.866;4.324;2023-11-19T01:08:39;5;2;
71858;PMS5003;59713;50.866;4.324;2023-11-19T01:09:41;5;2;
71858;PMS5003;59713;50.866;4.324;2023-11-19T01:10:39;13;6;
71858;PMS5003;59713;50.866;4.324;2023-11-19T01:11:39;13;6;
71858;PMS5003;59713;50.866;4.324;2023-11-19T01:11:39;13;6;
71858;PMS5003;59713;50.866;4.324;2023-11-19T01:12:39;13;6;
71858;PMS5003;59713;50.866;4.324;2023-11-19T01:13:39;3;2;
71858;PMS5003;59713;50.866;4.324;2023-11-19T01:14:39;3;2;
71858;PMS5003;59713;50.866;4.324;2023-11-19T01:15:39;3;2;
71858;PMS5003;59713;50.866;4.324;2023-11-19T01:16:39;5;2;
71858;PMS5003;59713;50.866;4.324;2023-11-19T01:17:39;5;2;
71858;PMS5003;59713;50.866;4.324;2023-11-19T01:18:39;5;2;
71858;PMS5003;59713;50.866;4.324;2023-11-19T01:19:39;6;5;
71858;PMS5003;59713;50.866;4.324;2023-11-19T01:20:39;6;5;
71858;PMS5003;59713;50.866;4.324;2023-11-19T01:20:39;6;5;
71858;PMS5003;59713;50.866;4.324;2023-11-19T01:21:39;6;5;
71858;PMS5003;59713;50.866;4.324;2023-11-19T01:22:39;2;2;
71858;PMS5003;59713;50.866;4.324;2023-11-19T01:23:39;2;2;
71858;PMS5003;59713;50.866;4.324;2023-11-19T01:24:39;2;2;
71858;PMS5003;59713;50.866;4.324;2023-11-19T01:25:39;5;3;
71858;PMS5003;59713;50.866;4.324;2023-11-19T01:26:39;5;3;
71858;PMS5003;59713;50.866;4.324;2023-11-19T01:27:39;5;3;
71858;PMS5003;59713;50.866;4.324;2023-11-19T01:28:39;6;5;
71858;PMS5003;59713;50.866;4.324;2023-11-19T01:29:39;6;5;
71858;PMS5003;59713;50.866;4.324;2023-11-19T01:29:39;6;5;
71858;PMS5003;59713;50.866;4.324;2023-11-19T01:30:39;6;5;
71858;PMS5003;59713;50.866;4.324;2023-11-19T01:31:39;4;2;
71858;PMS5003;59713;50.866;4.324;2023-11-19T01:32:39;4;2;
71858;PMS5003;59713;50.866;4.324;2023-11-19T01:33:39;4;2;
71858;PMS5003;59713;50.866;4.324;2023-11-19T01:34:39;6;3;
71858;PMS5003;59713;50.866;4.324;2023-11-19T01:35:39;6;3;
71858;PMS5003;59713;50.866;4.324;2023-11-19T01:36:39;6;3;
71858;PMS5003;59713;50.866;4.324;2023-11-19T01:37:39;4;2;
71858;PMS5003;59713;50.866;4.324;2023-11-19T01:38:39;4;2;
71858;PMS5003;59713;50.866;4.324;2023-11-19T01:38:39;4;2;
71858;PMS5003;59713;50.866;4.324;2023-11-19T01:39:39;4;2;
71858;PMS5003;59713;50.866;4.324;2023-11-19T01:40:39;6;1;
71858;PMS5003;59713;50.866;4.324;2023-11-19T01:41:39;6;1;
71858;PMS5003;59713;50.866;4.324;2023-11-19T01:42:39;6;1;
71858;PMS5003;59713;50.866;4.324;2023-11-19T01:43:39;5;3;
71858;PMS5003;59713;50.866;4.324;2023-11-19T01:44:39;5;3;
71858;PMS5003;59713;50.866;4.324;2023-11-19T01:45:39;5;3;
71858;PMS5003;59713;50.866;4.324;2023-11-19T01:46:40;5;3;
71858;PMS5003;59713;50.866;4.324;2023-11-19T01:47:39;5;3;
71858;PMS5003;59713;50.866;4.324;2023-11-19T01:47:39;5;3;
71858;PMS5003;59713;50.866;4.324;2023-11-19T01:48:39;5;3;
71858;PMS5003;59713;50.866;4.324;2023-11-19T01:49:39;3;0;
71858;PMS5003;59713;50.866;4.324;2023-11-19T01:50:39;3;0;
71858;PMS5003;59713;50.866;4.324;2023-11-19T01:51:39;3;0;
71858;PMS5003;59713;50.866;4.324;2023-11-19T01:52:39;4;3;
71858;PMS5003;59713;50.866;4.324;2023-11-19T01:53:39;4;3;
71858;PMS5003;59713;50.866;4.324;2023-11-19T01:54:39;4;3;
71858;PMS5003;59713;50.866;4.324;2023-11-19T01:55:39;5;2;
71858;PMS5003;59713;50.866;4.324;2023-11-19T01:56:39;5;2;
71858;PMS5003;59713;50.866;4.324;2023-11-19T01:56:39;5;2;
71858;PMS5003;59713;50.866;4.324;2023-11-19T01:57:39;5;2;
71858;PMS5003;59713;50.866;4.324;2023-11-19T01:58:39;7;3;
71858;PMS5003;59713;50.866;4.324;2023-11-19T01:59:39;7;3;
71858;PMS5003;59713;50.866;4.324;2023-11-19T02:00:39;7;3;
71858;PMS5003;59713;50.866;4.324;2023-11-19T02:01:39;4;2;
71858;PMS5003;59713;50.866;4.324;2023-11-19T02:02:39;4;2;
71858;PMS5003;59713;50.866;4.324;2023-11-19T02:03:39;4;2;
71858;PMS5003;59713;50.866;4.324;2023-11-19T02:04:39;3;1;
71858;PMS5003;59713;50.866;4.324;2023-11-19T02:05:39;3;1;
71858;PMS5003;59713;50.866;4.324;2023-11-19T02:05:39;3;1;
71858;PMS5003;59713;50.866;4.324;2023-11-19T02:06:39;3;1;
71858;PMS5003;59713;50.866;4.324;2023-11-19T02:07:39;2;2;
71858;PMS5003;59713;50.866;4.324;2023-11-19T02:08:39;2;2;
71858;PMS5003;59713;50.866;4.324;2023-11-19T02:09:39;2;2;
71858;PMS5003;59713;50.866;4.324;2023-11-19T02:10:39;4;2;
71858;PMS5003;59713;50.866;4.324;2023-11-19T02:11:39;4;2;
71858;PMS5003;59713;50.866;4.324;2023-11-19T02:12:39;4;2;
71858;PMS5003;59713;50.866;4.324;2023-11-19T02:13:39;5;4;
71858;PMS5003;59713;50.866;4.324;2023-11-19T02:14:39;5;4;
71858;PMS5003;59713;50.866;4.324;2023-11-19T02:14:39;5;4;
71858;PMS5003;59713;50.866;4.324;2023-11-19T02:15:39;5;4;
71858;PMS5003;59713;50.866;4.324;2023-11-19T02:16:39;3;1;
71858;PMS5003;59713;50.866;4.324;2023-11-19T02:17:39;3;1;
71858;PMS5003;59713;50.866;4.324;2023-11-19T02:18:39;3;1;
71858;PMS5003;59713;50.866;4.324;2023-11-19T02:19:39;1;1;
71858;PMS5003;59713;50.866;4.324;2023-11-19T02:20:39;1;1;
71858;PMS5003;59713;50.866;4.324;2023-11-19T02:21:39;1;1;
71858;PMS5003;59713;50.866;4.324;2023-11-19T02:22:39;7;2;
71858;PMS5003;59713;50.866;4.324;2023-11-19T02:23:39;7;2;
71858;PMS5003;59713;50.866;4.324;2023-11-19T02:24:39;7;2;
71858;PMS5003;59713;50.866;4.324;2023-11-19T02:25:39;4;1;
71858;PMS5003;59713;50.866;4.324;2023-11-19T02:26:39;4;1;
71858;PMS5003;59713;50.866;4.324;2023-11-19T02:27:43;4;1;
71858;PMS5003;59713;50.866;4.324;2023-11-19T02:28:39;4;3;
71858;PMS5003;59713;50.866;4.324;2023-11-19T02:29:39;4;3;
71858;PMS5003;59713;50.866;4.324;2023-11-19T02:30:39;4;3;
71858;PMS5003;59713;50.866;4.324;2023-11-19T02:31:39;8;3;
71858;PMS5003;59713;50.866;4.324;2023-11-19T02:32:40;8;3;
71858;PMS5003;59713;50.866;4.324;2023-11-19T02:32:40;8;3;
71858;PMS5003;59713;50.866;4.324;2023-11-19T02:33:39;8;3;
71858;PMS5003;59713;50.866;4.324;2023-11-19T02:34:39;7;3;
71858;PMS5003;59713;50.866;4.324;2023-11-19T02:35:39;7;3;
71858;PMS5003;59713;50.866;4.324;2023-11-19T02:36:39;7;3;
71858;PMS5003;59713;50.866;4.324;2023-11-19T02:37:39;8;3;
71858;PMS5003;59713;50.866;4.324;2023-11-19T02:38:39;8;3;
71858;PMS5003;59713;50.866;4.324;2023-11-19T02:39:39;8;3;
71858;PMS5003;59713;50.866;4.324;2023-11-19T02:40:39;6;2;
71858;PMS5003;59713;50.866;4.324;2023-11-19T02:41:39;6;2;
71858;PMS5003;59713;50.866;4.324;2023-11-19T02:41:39;6;2;
71858;PMS5003;59713;50.866;4.324;2023-11-19T02:42:39;6;2;
71858;PMS5003;59713;50.866;4.324;2023-11-19T02:43:39;5;1;
71858;PMS5003;59713;50.866;4.324;2023-11-19T02:44:39;5;1;
71858;PMS5003;59713;50.866;4.324;2023-11-19T02:45:39;5;1;
71858;PMS5003;59713;50.866;4.324;2023-11-19T02:46:39;7;4;
71858;PMS5003;59713;50.866;4.324;2023-11-19T02:47:39;7;4;
71858;PMS5003;59713;50.866;4.324;2023-11-19T02:48:39;7;4;
71858;PMS5003;59713;50.866;4.324;2023-11-19T02:49:39;6;3;
71858;PMS5003;59713;50.866;4.324;2023-11-19T02:50:39;6;3;
71858;PMS5003;59713;50.866;4.324;2023-11-19T02:50:39;6;3;
71858;PMS5003;59713;50.866;4.324;2023-11-19T02:51:39;6;3;
71858;PMS5003;59713;50.866;4.324;2023-11-19T02:52:39;3;2;
71858;PMS5003;59713;50.866;4.324;2023-11-19T02:53:39;3;2;
71858;PMS5003;59713;50.866;4.324;2023-11-19T02:54:39;3;2;
71858;PMS5003;59713;50.866;4.324;2023-11-19T02:55:39;4;3;
71858;PMS5003;59713;50.866;4.324;2023-11-19T02:56:42;4;3;
71858;PMS5003;59713;50.866;4.324;2023-11-19T02:57:39;4;3;
71858;PMS5003;59713;50.866;4.324;2023-11-19T02:58:39;4;1;
71858;PMS5003;59713;50.866;4.324;2023-11-19T02:59:39;4;1;
71858;PMS5003;59713;50.866;4.324;2023-11-19T03:00:39;4;1;
71858;PMS5003;59713;50.866;4.324;2023-11-19T03:00:39;4;1;
71858;PMS5003;59713;50.866;4.324;2023-11-19T03:01:39;7;1;
71858;PMS5003;59713;50.866;4.324;2023-11-19T03:02:39;7;1;
71858;PMS5003;59713;50.866;4.324;2023-11-19T03:03:39;7;1;
71858;PMS5003;59713;50.866;4.324;2023-11-19T03:04:39;7;4;
71858;PMS5003;59713;50.866;4.324;2023-11-19T03:05:39;7;4;
71858;PMS5003;59713;50.866;4.324;2023-11-19T03:06:39;7;4;
71858;PMS5003;59713;50.866;4.324;2023-11-19T03:07:39;13;4;
71858;PMS5003;59713;50.866;4.324;2023-11-19T03:08:39;13;4;
71858;PMS5003;59713;50.866;4.324;2023-11-19T03:09:39;13;4;
71858;PMS5003;59713;50.866;4.324;2023-11-19T03:09:39;13;4;
71858;PMS5003;59713;50.866;4.324;2023-11-19T03:10:39;11;3;
71858;PMS5003;59713;50.866;4.324;2023-11-19T03:11:39;11;3;
71858;PMS5003;59713;50.866;4.324;2023-11-19T03:12:39;11;3;
71858;PMS5003;59713;50.866;4.324;2023-11-19T03:13:39;10;3;
71858;PMS5003;59713;50.866;4.324;2023-11-19T03:14:39;10;3;
71858;PMS5003;59713;50.866;4.324;2023-11-19T03:15:39;10;3;
71858;PMS5003;59713;50.866;4.324;2023-11-19T03:16:39;9;3;
71858;PMS5003;59713;50.866;4.324;2023-11-19T03:17:39;9;3;
71858;PMS5003;59713;50.866;4.324;2023-11-19T03:18:39;9;3;
71858;PMS5003;59713;50.866;4.324;2023-11-19T03:18:39;9;3;
71858;PMS5003;59713;50.866;4.324;2023-11-19T03:19:39;8;4;
71858;PMS5003;59713;50.866;4.324;2023-11-19T03:20:39;8;4;
71858;PMS5003;59713;50.866;4.324;2023-11-19T03:21:39;8;4;
71858;PMS5003;59713;50.866;4.324;2023-11-19T03:22:39;7;2;
71858;PMS5003;59713;50.866;4.324;2023-11-19T03:23:39;7;2;
71858;PMS5003;59713;50.866;4.324;2023-11-19T03:24:39;7;2;
71858;PMS5003;59713;50.866;4.324;2023-11-19T03:25:39;3;1;
71858;PMS5003;59713;50.866;4.324;2023-11-19T03:26:39;3;1;
71858;PMS5003;59713;50.866;4.324;2023-11-19T03:27:39;3;1;
71858;PMS5003;59713;50.866;4.324;2023-11-19T03:27:39;3;1;
71858;PMS5003;59713;50.866;4.324;2023-11-19T03:28:39;13;6;
71858;PMS5003;59713;50.866;4.324;2023-11-19T03:29:39;13;6;
71858;PMS5003;59713;50.866;4.324;2023-11-19T03:30:39;13;6;
71858;PMS5003;59713;50.866;4.324;2023-11-19T03:31:41;7;2;
71858;PMS5003;59713;50.866;4.324;2023-11-19T03:32:39;7;2;
71858;PMS5003;59713;50.866;4.324;2023-11-19T03:33:39;7;2;
71858;PMS5003;59713;50.866;4.324;2023-11-19T03:34:39;12;4;
71858;PMS5003;59713;50.866;4.324;2023-11-19T03:35:39;12;4;
71858;PMS5003;59713;50.866;4.324;2023-11-19T03:36:39;12;4;
71858;PMS5003;59713;50.866;4.324;2023-11-19T03:37:39;8;6;
71858;PMS5003;59713;50.866;4.324;2023-11-19T03:37:39;8;6;
71858;PMS5003;59713;50.866;4.324;2023-11-19T03:38:39;8;6;
71858;PMS5003;59713;50.866;4.324;2023-11-19T03:39:39;8;6;
71858;PMS5003;59713;50.866;4.324;2023-11-19T03:40:39;5;3;
71858;PMS5003;59713;50.866;4.324;2023-11-19T03:41:39;5;3;
71858;PMS5003;59713;50.866;4.324;2023-11-19T03:42:39;5;3;
71858;PMS5003;59713;50.866;4.324;2023-11-19T03:43:39;6;3;
71858;PMS5003;59713;50.866;4.324;2023-11-19T03:44:39;6;3;
71858;PMS5003;59713;50.866;4.324;2023-11-19T03:45:39;6;3;
71858;PMS5003;59713;50.866;4.324;2023-11-19T03:46:39;5;5;
71858;PMS5003;59713;50.866;4.324;2023-11-19T03:46:39;5;5;
71858;PMS5003;59713;50.866;4.324;2023-11-19T03:47:39;5;5;
71858;PMS5003;59713;50.866;4.324;2023-11-19T03:48:39;5;5;
71858;PMS5003;59713;50.866;4.324;2023-11-19T03:49:39;8;2;
71858;PMS5003;59713;50.866;4.324;2023-11-19T03:50:39;8;2;
71858;PMS5003;59713;50.866;4.324;2023-11-19T03:51:39;8;2;
71858;PMS5003;59713;50.866;4.324;2023-11-19T03:52:39;4;1;
71858;PMS5003;59713;50.866;4.324;2023-11-19T03:53:39;4;1;
71858;PMS5003;59713;50.866;4.324;2023-11-19T03:54:39;4;1;
71858;PMS5003;59713;50.866;4.324;2023-11-19T03:55:39;2;2;
71858;PMS5003;59713;50.866;4.324;2023-11-19T03:55:39;2;2;
71858;PMS5003;59713;50.866;4.324;2023-11-19T03:56:39;2;2;
71858;PMS5003;59713;50.866;4.324;2023-11-19T03:57:39;2;2;
71858;PMS5003;59713;50.866;4.324;2023-11-19T03:58:39;8;3;
71858;PMS5003;59713;50.866;4.324;2023-11-19T03:59:39;8;3;
71858;PMS5003;59713;50.866;4.324;2023-11-19T04:00:39;8;3;
71858;PMS5003;59713;50.866;4.324;2023-11-19T04:01:40;8;3;
71858;PMS5003;59713;50.866;4.324;2023-11-19T04:02:39;8;3;
71858;PMS5003;59713;50.866;4.324;2023-11-19T04:03:39;8;3;
71858;PMS5003;59713;50.866;4.324;2023-11-19T04:04:39;8;4;
71858;PMS5003;59713;50.866;4.324;2023-11-19T04:05:39;8;4;
71858;PMS5003;59713;50.866;4.324;2023-11-19T04:05:39;8;4;
71858;PMS5003;59713;50.866;4.324;2023-11-19T04:06:39;8;4;
71858;PMS5003;59713;50.866;4.324;2023-11-19T04:07:39;4;2;
71858;PMS5003;59713;50.866;4.324;2023-11-19T04:08:39;4;2;
71858;PMS5003;59713;50.866;4.324;2023-11-19T04:09:39;4;2;
71858;PMS5003;59713;50.866;4.324;2023-11-19T04:10:39;8;4;
71858;PMS5003;59713;50.866;4.324;2023-11-19T04:11:39;8;4;
71858;PMS5003;59713;50.866;4.324;2023-11-19T04:12:39;8;4;
71858;PMS5003;59713;50.866;4.324;2023-11-19T04:13:39;9;3;
71858;PMS5003;59713;50.866;4.324;2023-11-19T04:14:39;9;3;
71858;PMS5003;59713;50.866;4.324;2023-11-19T04:14:39;9;3;
71858;PMS5003;59713;50.866;4.324;2023-11-19T04:15:39;9;3;
71858;PMS5003;59713;50.866;4.324;2023-11-19T04:16:39;7;3;
71858;PMS5003;59713;50.866;4.324;2023-11-19T04:17:39;7;3;
71858;PMS5003;59713;50.866;4.324;2023-11-19T04:18:39;7;3;
71858;PMS5003;59713;50.866;4.324;2023-11-19T04:19:39;5;2;
71858;PMS5003;59713;50.866;4.324;2023-11-19T04:20:39;5;2;
71858;PMS5003;59713;50.866;4.324;2023-11-19T04:21:39;5;2;
71858;PMS5003;59713;50.866;4.324;2023-11-19T04:22:39;8;3;
71858;PMS5003;59713;50.866;4.324;2023-11-19T04:23:39;8;3;
71858;PMS5003;59713;50.866;4.324;2023-11-19T04:23:39;8;3;
71858;PMS5003;59713;50.866;4.324;2023-11-19T04:24:40;8;3;
71858;PMS5003;59713;50.866;4.324;2023-11-19T04:25:39;6;4;
71858;PMS5003;59713;50.866;4.324;2023-11-19T04:26:39;6;4;
71858;PMS5003;59713;50.866;4.324;2023-11-19T04:27:39;6;4;
71858;PMS5003;59713;50.866;4.324;2023-11-19T04:28:39;8;4;
71858;PMS5003;59713;50.866;4.324;2023-11-19T04:29:39;8;4;
71858;PMS5003;59713;50.866;4.324;2023-11-19T04:30:39;8;4;
71858;PMS5003;59713;50.866;4.324;2023-11-19T04:31:39;6;3;
71858;PMS5003;59713;50.866;4.324;2023-11-19T04:32:39;6;3;
71858;PMS5003;59713;50.866;4.324;2023-11-19T04:32:39;6;3;
71858;PMS5003;59713;50.866;4.324;2023-11-19T04:33:39;6;3;
71858;PMS5003;59713;50.866;4.324;2023-11-19T04:34:39;9;4;
71858;PMS5003;59713;50.866;4.324;2023-11-19T04:35:39;9;4;
71858;PMS5003;59713;50.866;4.324;2023-11-19T04:36:39;9;4;
71858;PMS5003;59713;50.866;4.324;2023-11-19T04:37:39;8;3;
71858;PMS5003;59713;50.866;4.324;2023-11-19T04:38:39;8;3;
71858;PMS5003;59713;50.866;4.324;2023-11-19T04:39:39;8;3;
71858;PMS5003;59713;50.866;4.324;2023-11-19T04:40:39;9;6;
71858;PMS5003;59713;50.866;4.324;2023-11-19T04:41:45;9;6;
71858;PMS5003;59713;50.866;4.324;2023-11-19T04:41:45;9;6;
71858;PMS5003;59713;50.866;4.324;2023-11-19T04:42:39;9;6;
71858;PMS5003;59713;50.866;4.324;2023-11-19T04:43:39;9;4;
71858;PMS5003;59713;50.866;4.324;2023-11-19T04:44:42;9;4;
71858;PMS5003;59713;50.866;4.324;2023-11-19T04:45:39;9;4;
71858;PMS5003;59713;50.866;4.324;2023-11-19T04:46:39;12;4;
71858;PMS5003;59713;50.866;4.324;2023-11-19T04:47:39;12;4;
71858;PMS5003;59713;50.866;4.324;2023-11-19T04:48:39;12;4;
71858;PMS5003;59713;50.866;4.324;2023-11-19T04:49:40;12;3;
71858;PMS5003;59713;50.866;4.324;2023-11-19T04:50:39;12;3;
71858;PMS5003;59713;50.866;4.324;2023-11-19T04:50:39;12;3;
71858;PMS5003;59713;50.866;4.324;2023-11-19T04:51:39;12;3;
71858;PMS5003;59713;50.866;4.324;2023-11-19T04:52:39;8;3;
71858;PMS5003;59713;50.866;4.324;2023-11-19T04:53:39;8;3;
71858;PMS5003;59713;50.866;4.324;2023-11-19T04:54:40;8;3;
71858;PMS5003;59713;50.866;4.324;2023-11-19T04:55:39;4;1;
71858;PMS5003;59713;50.866;4.324;2023-11-19T04:56:39;4;1;
71858;PMS5003;59713;50.866;4.324;2023-11-19T04:57:39;4;1;
71858;PMS5003;59713;50.866;4.324;2023-11-19T04:58:39;15;6;
71858;PMS5003;59713;50.866;4.324;2023-11-19T04:59:39;15;6;
71858;PMS5003;59713;50.866;4.324;2023-11-19T04:59:39;15;6;
71858;PMS5003;59713;50.866;4.324;2023-11-19T05:00:39;15;6;
71858;PMS5003;59713;50.866;4.324;2023-11-19T05:01:39;11;4;
71858;PMS5003;59713;50.866;4.324;2023-11-19T05:02:39;11;4;
71858;PMS5003;59713;50.866;4.324;2023-11-19T05:03:39;11;4;
71858;PMS5003;59713;50.866;4.324;2023-11-19T05:04:42;15;4;
71858;PMS5003;59713;50.866;4.324;2023-11-19T05:05:39;15;4;
71858;PMS5003;59713;50.866;4.324;2023-11-19T05:06:39;15;4;
71858;PMS5003;59713;50.866;4.324;2023-11-19T05:07:39;6;4;
71858;PMS5003;59713;50.866;4.324;2023-11-19T05:08:39;6;4;
71858;PMS5003;59713;50.866;4.324;2023-11-19T05:09:39;6;4;
71858;PMS5003;59713;50.866;4.324;2023-11-19T05:09:39;6;4;
71858;PMS5003;59713;50.866;4.324;2023-11-19T05:10:39;5;2;
71858;PMS5003;59713;50.866;4.324;2023-11-19T05:11:39;5;2;
71858;PMS5003;59713;50.866;4.324;2023-11-19T05:12:39;5;2;
71858;PMS5003;59713;50.866;4.324;2023-11-19T05:13:39;6;4;
71858;PMS5003;59713;50.866;4.324;2023-11-19T05:14:39;6;4;
71858;PMS5003;59713;50.866;4.324;2023-11-19T05:15:39;6;4;
71858;PMS5003;59713;50.866;4.324;2023-11-19T05:16:39;8;4;
71858;PMS5003;59713;50.866;4.324;2023-11-19T05:17:39;8;4;
71858;PMS5003;59713;50.866;4.324;2023-11-19T05:18:39;8;4;
71858;PMS5003;59713;50.866;4.324;2023-11-19T05:18:39;8;4;
71858;PMS5003;59713;50.866;4.324;2023-11-19T05:19:39;4;3;
71858;PMS5003;59713;50.866;4.324;2023-11-19T05:20:39;4;3;
71858;PMS5003;59713;50.866;4.324;2023-11-19T05:21:41;4;3;
71858;PMS5003;59713;50.866;4.324;2023-11-19T05:22:39;8;4;
71858;PMS5003;59713;50.866;4.324;2023-11-19T05:23:40;8;4;
71858;PMS5003;59713;50.866;4.324;2023-11-19T05:24:39;8;4;
71858;PMS5003;59713;50.866;4.324;2023-11-19T05:25:39;5;2;
71858;PMS5003;59713;50.866;4.324;2023-11-19T05:26:39;5;2;
71858;PMS5003;59713;50.866;4.324;2023-11-19T05:27:39;5;2;
71858;PMS5003;59713;50.866;4.324;2023-11-19T05:27:39;5;2;
71858;PMS5003;59713;50.866;4.324;2023-11-19T05:28:39;8;4;
71858;PMS5003;59713;50.866;4.324;2023-11-19T05:29:39;8;4;
71858;PMS5003;59713;50.866;4.324;2023-11-19T05:30:39;8;4;
71858;PMS5003;59713;50.866;4.324;2023-11-19T05:31:39;7;6;
71858;PMS5003;59713;50.866;4.324;2023-11-19T05:32:39;7;6;
71858;PMS5003;59713;50.866;4.324;2023-11-19T05:33:39;7;6;
71858;PMS5003;59713;50.866;4.324;2023-11-19T05:34:39;9;3;
71858;PMS5003;59713;50.866;4.324;2023-11-19T05:35:39;9;3;
71858;PMS5003;59713;50.866;4.324;2023-11-19T05:36:39;9;3;
71858;PMS5003;59713;50.866;4.324;2023-11-19T05:36:39;9;3;
71858;PMS5003;59713;50.866;4.324;2023-11-19T05:37:39;8;3;
71858;PMS5003;59713;50.866;4.324;2023-11-19T05:38:39;8;3;
71858;PMS5003;59713;50.866;4.324;2023-11-19T05:39:39;8;3;
71858;PMS5003;59713;50.866;4.324;2023-11-19T05:40:39;6;2;
71858;PMS5003;59713;50.866;4.324;2023-11-19T05:41:39;6;2;
71858;PMS5003;59713;50.866;4.324;2023-11-19T05:42:39;6;2;
71858;PMS5003;59713;50.866;4.324;2023-11-19T05:43:39;9;5;
71858;PMS5003;59713;50.866;4.324;2023-11-19T05:44:39;9;5;
71858;PMS5003;59713;50.866;4.324;2023-11-19T05:45:39;9;5;
71858;PMS5003;59713;50.866;4.324;2023-11-19T05:45:39;9;5;
71858;PMS5003;59713;50.866;4.324;2023-11-19T05:46:39;5;3;
71858;PMS5003;59713;50.866;4.324;2023-11-19T05:47:39;5;3;
71858;PMS5003;59713;50.866;4.324;2023-11-19T05:48:39;5;3;
71858;PMS5003;59713;50.866;4.324;2023-11-19T05:49:39;10;5;
71858;PMS5003;59713;50.866;4.324;2023-11-19T05:50:39;10;5;
71858;PMS5003;59713;50.866;4.324;2023-11-19T05:51:39;10;5;
71858;PMS5003;59713;50.866;4.324;2023-11-19T05:52:39;12;4;
71858;PMS5003;59713;50.866;4.324;2023-11-19T05:53:40;12;4;
71858;PMS5003;59713;50.866;4.324;2023-11-19T05:54:39;12;4;
71858;PMS5003;59713;50.866;4.324;2023-11-19T05:54:39;12;4;
71858;PMS5003;59713;50.866;4.324;2023-11-19T05:55:39;8;4;
71858;PMS5003;59713;50.866;4.324;2023-11-19T05:56:39;8;4;
71858;PMS5003;59713;50.866;4.324;2023-11-19T05:57:39;8;4;
71858;PMS5003;59713;50.866;4.324;2023-11-19T05:58:39;8;3;
71858;PMS5003;59713;50.866;4.324;2023-11-19T05:59:39;8;3;
71858;PMS5003;59713;50.866;4.324;2023-11-19T06:00:40;8;3;
71858;PMS5003;59713;50.866;4.324;2023-11-19T06:01:39;4;3;
71858;PMS5003;59713;50.866;4.324;2023-11-19T06:02:39;4;3;
71858;PMS5003;59713;50.866;4.324;2023-11-19T06:03:39;4;3;
71858;PMS5003;59713;50.866;4.324;2023-11-19T06:04:39;12;5;
71858;PMS5003;59713;50.866;4.324;2023-11-19T06:04:39;12;5;
71858;PMS5003;59713;50.866;4.324;2023-11-19T06:05:39;12;5;
71858;PMS5003;59713;50.866;4.324;2023-11-19T06:06:39;12;5;
71858;PMS5003;59713;50.866;4.324;2023-11-19T06:07:39;5;3;
71858;PMS5003;59713;50.866;4.324;2023-11-19T06:08:39;5;3;
71858;PMS5003;59713;50.866;4.324;2023-11-19T06:09:39;5;3;
71858;PMS5003;59713;50.866;4.324;2023-11-19T06:10:39;8;6;
71858;PMS5003;59713;50.866;4.324;2023-11-19T06:11:39;8;6;